Terminal Aerodrome Forecast
Issued by NWS Atlanta, GA

Home | Current Version | Previous Version | Text Only | Print | Product List | Glossary On
Versions: 1 2 3 4 5 6 7 8 9 10 11 12 13 14 15 16 17 18 19 20 21 22 23 24 25 26 27 28 29 30 31 32 33 34 35 36
202
FTUS42 KFFC 171933 AAA
TAFATL
TAF AMD
KATL 171933Z 1720/1824 26014G24KT P6SM FEW050
     FM180100 25008KT P6SM FEW250
     FM181500 25012G20KT P6SM SCT250
     FM182100 23014G24KT P6SM FEW150 BKN250=

USA.gov is the U.S. government's official web portal to all federal, state and local government web resources and services.